GIA786J RJCC-RJAA
Flight info
| Callsign | GIA786J |
|---|---|
| Flight time | 1h 18m |
| Altitude | 34000 |
| Route | TOBBY Y10 LARCH Y302 JUGEM Y30 SWAMP |
| Aircraft | B744/H-SDE3FGHIM1M2RWXY/LB1 |
Departure
| Time | 2026-02-21 04:40 |
|---|---|
| Airport | New Chitose Airport (RJCC) |
Arrival
| Time | 2026-02-21 05:58 |
|---|---|
| Airport | Narita International Airport (RJAA) |
| Time | Latitude | Longitude | Altitude | Speed | Heading |
|---|---|---|---|---|---|
| 2026-02-21 04:11 | 42.79362 | 141.68231 | 81 ft | 0 kts | 263° |
| 2026-02-21 04:27 | 42.79362 | 141.68233 | 81 ft | 0 kts | 263° |
| 2026-02-21 04:29 | 42.79363 | 141.68248 | 81 ft | 2 kts | 263° |
| 2026-02-21 04:29 | 42.79365 | 141.68265 | 81 ft | 0 kts | 263° |
| 2026-02-21 04:29 | 42.79367 | 141.68282 | 81 ft | 2 kts | 250° |
| 2026-02-21 04:30 | 42.79374 | 141.68298 | 81 ft | 2 kts | 229° |
| 2026-02-21 04:30 | 42.79386 | 141.68312 | 81 ft | 2 kts | 211° |
| 2026-02-21 04:30 | 42.79400 | 141.68321 | 81 ft | 2 kts | 192° |
| 2026-02-21 04:30 | 42.79414 | 141.68323 | 81 ft | 1 kts | 175° |
| 2026-02-21 04:31 | 42.79420 | 141.68321 | 81 ft | 0 kts | 172° |
| 2026-02-21 04:34 | 42.79419 | 141.68321 | 81 ft | 1 kts | 172° |
| 2026-02-21 04:35 | 42.79393 | 141.68326 | 81 ft | 6 kts | 173° |
| 2026-02-21 04:35 | 42.79330 | 141.68338 | 81 ft | 11 kts | 173° |
| 2026-02-21 04:35 | 42.79259 | 141.68350 | 83 ft | 8 kts | 173° |
| 2026-02-21 04:35 | 42.79201 | 141.68359 | 84 ft | 9 kts | 173° |
| 2026-02-21 04:36 | 42.79125 | 141.68382 | 85 ft | 12 kts | 152° |
| 2026-02-21 04:36 | 42.79050 | 141.68457 | 87 ft | 12 kts | 143° |
| 2026-02-21 04:36 | 42.78980 | 141.68515 | 87 ft | 12 kts | 154° |
| 2026-02-21 04:36 | 42.78936 | 141.68594 | 85 ft | 10 kts | 85° |
| 2026-02-21 04:37 | 42.78937 | 141.68607 | 85 ft | 0 kts | 82° |
| 2026-02-21 04:37 | 42.78937 | 141.68611 | 85 ft | 2 kts | 82° |
| 2026-02-21 04:38 | 42.78937 | 141.68675 | 84 ft | 11 kts | 111° |
| 2026-02-21 04:38 | 42.78859 | 141.68782 | 82 ft | 18 kts | 141° |
| 2026-02-21 04:38 | 42.78740 | 141.68828 | 81 ft | 26 kts | 174° |
| 2026-02-21 04:38 | 42.78411 | 141.68886 | 80 ft | 40 kts | 173° |
| 2026-02-21 04:39 | 42.78343 | 141.68898 | 79 ft | 0 kts | 173° |
| 2026-02-21 04:39 | 42.78208 | 141.68922 | 79 ft | 56 kts | 172° |
| 2026-02-21 04:39 | 42.77575 | 141.69035 | 80 ft | 125 kts | 173° |
| 2026-02-21 04:39 | 42.76509 | 141.69220 | 137 ft | 175 kts | 172° |
| 2026-02-21 04:40 | 42.75269 | 141.69440 | 804 ft | 181 kts | 174° |
| 2026-02-21 04:40 | 42.74018 | 141.69431 | 1509 ft | 186 kts | 188° |
| 2026-02-21 04:40 | 42.72741 | 141.69161 | 2110 ft | 187 kts | 188° |
| 2026-02-21 04:40 | 42.71428 | 141.68945 | 2571 ft | 195 kts | 188° |
| 2026-02-21 04:41 | 42.70068 | 141.68712 | 3135 ft | 197 kts | 189° |
| 2026-02-21 04:41 | 42.68696 | 141.68727 | 3676 ft | 203 kts | 179° |
| 2026-02-21 04:41 | 42.67289 | 141.68890 | 4200 ft | 205 kts | 181° |
| 2026-02-21 04:41 | 42.65856 | 141.69008 | 4623 ft | 215 kts | 180° |
| 2026-02-21 04:42 | 42.64293 | 141.69159 | 4893 ft | 234 kts | 181° |
| 2026-02-21 04:42 | 42.62624 | 141.69313 | 5265 ft | 247 kts | 180° |
| 2026-02-21 04:42 | 42.60889 | 141.69482 | 5910 ft | 251 kts | 181° |
| 2026-02-21 04:42 | 42.59096 | 141.69655 | 6527 ft | 255 kts | 181° |
| 2026-02-21 04:43 | 42.57330 | 141.69823 | 7096 ft | 260 kts | 181° |
| 2026-02-21 04:43 | 42.55492 | 141.69995 | 7645 ft | 266 kts | 181° |
| 2026-02-21 04:43 | 42.53615 | 141.70172 | 8152 ft | 274 kts | 181° |
| 2026-02-21 04:43 | 42.51705 | 141.70352 | 8676 ft | 280 kts | 180° |
| 2026-02-21 04:44 | 42.49766 | 141.70537 | 9236 ft | 284 kts | 180° |
| 2026-02-21 04:44 | 42.47772 | 141.70728 | 9813 ft | 287 kts | 180° |
| 2026-02-21 04:44 | 42.45775 | 141.70918 | 10390 ft | 290 kts | 180° |
| 2026-02-21 04:44 | 42.43772 | 141.71107 | 10950 ft | 293 kts | 180° |
| 2026-02-21 04:45 | 42.41714 | 141.71304 | 11477 ft | 297 kts | 180° |
| 2026-02-21 04:45 | 42.39646 | 141.71500 | 11949 ft | 303 kts | 180° |
| 2026-02-21 04:45 | 42.37523 | 141.71699 | 12378 ft | 311 kts | 180° |
| 2026-02-21 04:45 | 42.35317 | 141.71909 | 12729 ft | 320 kts | 180° |
| 2026-02-21 04:46 | 42.33073 | 141.72119 | 13056 ft | 330 kts | 180° |
| 2026-02-21 04:46 | 42.30786 | 141.72337 | 13577 ft | 332 kts | 180° |
| 2026-02-21 04:46 | 42.28457 | 141.72559 | 14103 ft | 335 kts | 180° |
| 2026-02-21 04:47 | 42.23795 | 141.72998 | 15138 ft | 339 kts | 180° |
| 2026-02-21 04:47 | 42.21447 | 141.73219 | 15618 ft | 341 kts | 180° |
| 2026-02-21 04:47 | 42.19076 | 141.73442 | 16064 ft | 344 kts | 180° |
| 2026-02-21 04:47 | 42.16671 | 141.73669 | 16537 ft | 346 kts | 180° |
| 2026-02-21 04:48 | 42.14263 | 141.73894 | 16972 ft | 348 kts | 180° |
| 2026-02-21 04:48 | 42.11832 | 141.74123 | 17398 ft | 351 kts | 180° |
| 2026-02-21 04:48 | 42.09407 | 141.74352 | 17810 ft | 353 kts | 180° |
| 2026-02-21 04:48 | 42.06970 | 141.74580 | 18219 ft | 355 kts | 180° |
| 2026-02-21 04:49 | 42.04481 | 141.74814 | 18634 ft | 357 kts | 180° |
| 2026-02-21 04:49 | 42.01998 | 141.75047 | 19047 ft | 358 kts | 180° |
| 2026-02-21 04:49 | 41.99504 | 141.75281 | 19449 ft | 361 kts | 180° |
| 2026-02-21 04:49 | 41.96993 | 141.75514 | 19846 ft | 363 kts | 180° |
| 2026-02-21 04:50 | 41.94452 | 141.75751 | 20218 ft | 368 kts | 180° |
| 2026-02-21 04:50 | 41.91891 | 141.75989 | 20704 ft | 376 kts | 180° |
| 2026-02-21 04:50 | 41.89261 | 141.76237 | 21414 ft | 379 kts | 181° |
| 2026-02-21 04:50 | 41.86634 | 141.76480 | 22046 ft | 383 kts | 181° |
| 2026-02-21 04:51 | 41.83959 | 141.76729 | 22727 ft | 384 kts | 180° |
| 2026-02-21 04:51 | 41.81371 | 141.76970 | 23260 ft | 389 kts | 180° |
| 2026-02-21 04:51 | 41.78675 | 141.77220 | 23837 ft | 392 kts | 180° |
| 2026-02-21 04:51 | 41.75933 | 141.77477 | 24365 ft | 396 kts | 181° |
| 2026-02-21 04:52 | 41.73199 | 141.77728 | 24917 ft | 399 kts | 180° |
| 2026-02-21 04:52 | 41.70401 | 141.77989 | 25444 ft | 402 kts | 180° |
| 2026-02-21 04:52 | 41.67633 | 141.78245 | 25998 ft | 405 kts | 181° |
| 2026-02-21 04:52 | 41.64800 | 141.78508 | 26570 ft | 407 kts | 181° |
| 2026-02-21 04:53 | 41.61957 | 141.78772 | 27086 ft | 410 kts | 181° |
| 2026-02-21 04:53 | 41.59114 | 141.79034 | 27591 ft | 412 kts | 181° |
| 2026-02-21 04:53 | 41.56222 | 141.79301 | 28099 ft | 414 kts | 181° |
| 2026-02-21 04:53 | 41.53339 | 141.79567 | 28556 ft | 417 kts | 181° |
| 2026-02-21 04:54 | 41.50428 | 141.79820 | 28970 ft | 419 kts | 184° |
| 2026-02-21 04:54 | 41.47523 | 141.79540 | 29312 ft | 415 kts | 194° |
| 2026-02-21 04:54 | 41.44706 | 141.78909 | 29693 ft | 418 kts | 193° |
| 2026-02-21 04:54 | 41.41820 | 141.78365 | 30078 ft | 421 kts | 193° |
| 2026-02-21 04:55 | 41.38907 | 141.77786 | 30477 ft | 423 kts | 193° |
| 2026-02-21 04:55 | 41.35989 | 141.77225 | 30871 ft | 425 kts | 193° |
| 2026-02-21 04:55 | 41.33073 | 141.76666 | 31251 ft | 427 kts | 193° |
| 2026-02-21 04:55 | 41.30130 | 141.76108 | 31576 ft | 429 kts | 193° |
| 2026-02-21 04:56 | 41.27138 | 141.75540 | 31867 ft | 432 kts | 193° |
| 2026-02-21 04:56 | 41.24194 | 141.74985 | 32131 ft | 435 kts | 193° |
| 2026-02-21 04:56 | 41.21166 | 141.74419 | 32420 ft | 437 kts | 193° |
| 2026-02-21 04:56 | 41.18166 | 141.73854 | 32663 ft | 440 kts | 193° |
| 2026-02-21 04:57 | 41.15147 | 141.73294 | 32901 ft | 442 kts | 193° |
| 2026-02-21 04:57 | 41.12086 | 141.72723 | 33151 ft | 444 kts | 193° |
| 2026-02-21 04:57 | 41.09038 | 141.72154 | 33381 ft | 447 kts | 193° |
| 2026-02-21 04:57 | 41.05938 | 141.71578 | 33589 ft | 449 kts | 193° |
| 2026-02-21 04:58 | 41.02809 | 141.71001 | 33800 ft | 454 kts | 193° |
| 2026-02-21 04:58 | 40.99672 | 141.70415 | 33939 ft | 460 kts | 193° |
| 2026-02-21 04:58 | 40.96499 | 141.69827 | 34052 ft | 467 kts | 193° |
| 2026-02-21 04:58 | 40.93229 | 141.69222 | 34092 ft | 476 kts | 193° |
| 2026-02-21 04:59 | 40.86601 | 141.67999 | 34113 ft | 488 kts | 193° |
| 2026-02-21 04:59 | 40.79910 | 141.66769 | 34096 ft | 483 kts | 193° |
| 2026-02-21 05:00 | 40.73295 | 141.65558 | 34054 ft | 485 kts | 193° |
| 2026-02-21 05:00 | 40.66599 | 141.64331 | 34079 ft | 486 kts | 193° |
| 2026-02-21 05:01 | 40.59920 | 141.63109 | 34066 ft | 484 kts | 193° |
| 2026-02-21 05:01 | 40.53242 | 141.61890 | 34063 ft | 484 kts | 193° |
| 2026-02-21 05:02 | 40.46604 | 141.60680 | 34085 ft | 484 kts | 193° |
| 2026-02-21 05:02 | 40.39935 | 141.59470 | 34052 ft | 485 kts | 193° |
| 2026-02-21 05:03 | 40.33251 | 141.58255 | 34060 ft | 486 kts | 193° |
| 2026-02-21 05:03 | 40.26586 | 141.57048 | 34043 ft | 486 kts | 194° |
| 2026-02-21 05:04 | 40.19883 | 141.55838 | 34037 ft | 486 kts | 194° |
| 2026-02-21 05:04 | 40.13174 | 141.54628 | 34029 ft | 485 kts | 194° |
| 2026-02-21 05:05 | 40.06510 | 141.53426 | 34040 ft | 486 kts | 194° |
| 2026-02-21 05:05 | 39.99848 | 141.52231 | 34031 ft | 485 kts | 194° |
| 2026-02-21 05:06 | 39.93157 | 141.51030 | 34019 ft | 486 kts | 194° |
| 2026-02-21 05:06 | 39.86446 | 141.49829 | 33977 ft | 487 kts | 194° |
| 2026-02-21 05:07 | 39.79739 | 141.48631 | 34011 ft | 486 kts | 194° |
| 2026-02-21 05:07 | 39.73042 | 141.47437 | 34024 ft | 487 kts | 194° |
| 2026-02-21 05:08 | 39.66349 | 141.46248 | 33962 ft | 488 kts | 194° |
| 2026-02-21 05:08 | 39.59594 | 141.45042 | 34063 ft | 490 kts | 194° |
| 2026-02-21 05:09 | 39.52872 | 141.43855 | 34032 ft | 486 kts | 194° |
| 2026-02-21 05:09 | 39.46173 | 141.42671 | 34011 ft | 487 kts | 194° |
| 2026-02-21 05:10 | 39.39485 | 141.41493 | 33989 ft | 489 kts | 194° |
| 2026-02-21 05:10 | 39.32692 | 141.40297 | 34146 ft | 492 kts | 194° |
| 2026-02-21 05:11 | 39.25974 | 141.39116 | 34029 ft | 491 kts | 194° |
| 2026-02-21 05:11 | 39.19210 | 141.37932 | 34121 ft | 491 kts | 194° |
| 2026-02-21 05:12 | 39.12451 | 141.36752 | 34030 ft | 490 kts | 194° |
| 2026-02-21 05:12 | 39.05692 | 141.35567 | 34074 ft | 492 kts | 194° |
| 2026-02-21 05:13 | 38.98904 | 141.34384 | 34098 ft | 492 kts | 193° |
| 2026-02-21 05:13 | 38.92150 | 141.33217 | 34070 ft | 493 kts | 194° |
| 2026-02-21 05:14 | 38.85292 | 141.32024 | 34075 ft | 495 kts | 194° |
| 2026-02-21 05:14 | 38.78502 | 141.30843 | 34106 ft | 495 kts | 194° |
| 2026-02-21 05:15 | 38.71703 | 141.29669 | 34090 ft | 493 kts | 194° |
| 2026-02-21 05:15 | 38.64895 | 141.28493 | 34124 ft | 493 kts | 194° |
| 2026-02-21 05:16 | 38.58087 | 141.27325 | 34091 ft | 494 kts | 194° |
| 2026-02-21 05:16 | 38.51264 | 141.26149 | 34100 ft | 495 kts | 194° |
| 2026-02-21 05:17 | 38.44472 | 141.24983 | 34109 ft | 495 kts | 194° |
| 2026-02-21 05:17 | 38.37664 | 141.23817 | 34121 ft | 494 kts | 194° |
| 2026-02-21 05:18 | 38.30844 | 141.22655 | 34093 ft | 494 kts | 194° |
| 2026-02-21 05:18 | 38.23999 | 141.21486 | 34101 ft | 497 kts | 194° |
| 2026-02-21 05:19 | 38.17155 | 141.20320 | 34085 ft | 498 kts | 194° |
| 2026-02-21 05:19 | 38.10285 | 141.19153 | 34126 ft | 498 kts | 194° |
| 2026-02-21 05:20 | 38.03449 | 141.17993 | 34108 ft | 495 kts | 194° |
| 2026-02-21 05:20 | 37.96652 | 141.16843 | 34080 ft | 497 kts | 194° |
| 2026-02-21 05:21 | 37.89922 | 141.15122 | 34060 ft | 486 kts | 206° |
| 2026-02-21 05:21 | 37.83794 | 141.12590 | 34132 ft | 489 kts | 205° |
| 2026-02-21 05:22 | 37.77313 | 141.09978 | 34079 ft | 490 kts | 205° |
| 2026-02-21 05:22 | 37.70832 | 141.07394 | 34087 ft | 489 kts | 205° |
| 2026-02-21 05:23 | 37.64327 | 141.04817 | 34101 ft | 492 kts | 205° |
| 2026-02-21 05:23 | 37.57820 | 141.02249 | 34154 ft | 489 kts | 205° |
| 2026-02-21 05:24 | 37.51346 | 140.99705 | 34080 ft | 488 kts | 205° |
| 2026-02-21 05:24 | 37.44835 | 140.97145 | 34154 ft | 490 kts | 205° |
| 2026-02-21 05:25 | 37.38321 | 140.94600 | 34114 ft | 490 kts | 205° |
| 2026-02-21 05:25 | 37.31831 | 140.92076 | 34092 ft | 491 kts | 205° |
| 2026-02-21 05:26 | 37.25326 | 140.89548 | 34081 ft | 491 kts | 205° |
| 2026-02-21 05:27 | 37.15573 | 140.85771 | 34061 ft | 488 kts | 205° |
| 2026-02-21 05:27 | 37.09049 | 140.83247 | 34093 ft | 491 kts | 205° |
| 2026-02-21 05:28 | 37.02519 | 140.80725 | 34084 ft | 492 kts | 205° |
| 2026-02-21 05:28 | 36.95997 | 140.78214 | 34024 ft | 491 kts | 205° |
| 2026-02-21 05:29 | 36.89476 | 140.75707 | 34069 ft | 490 kts | 205° |
| 2026-02-21 05:29 | 36.82980 | 140.73212 | 34074 ft | 489 kts | 205° |
| 2026-02-21 05:30 | 36.77827 | 140.71239 | 34031 ft | 488 kts | 205° |
| 2026-02-21 05:30 | 36.71330 | 140.68750 | 34091 ft | 492 kts | 205° |
| 2026-02-21 05:31 | 36.64764 | 140.66242 | 34086 ft | 491 kts | 205° |
| 2026-02-21 05:31 | 36.61481 | 140.64992 | 33884 ft | 491 kts | 205° |
| 2026-02-21 05:31 | 36.58218 | 140.63750 | 33394 ft | 483 kts | 205° |
| 2026-02-21 05:31 | 36.55051 | 140.62549 | 32831 ft | 472 kts | 205° |
| 2026-02-21 05:32 | 36.51967 | 140.61375 | 32325 ft | 461 kts | 205° |
| 2026-02-21 05:32 | 36.48905 | 140.60216 | 31828 ft | 452 kts | 205° |
| 2026-02-21 05:32 | 36.45920 | 140.59082 | 31293 ft | 443 kts | 205° |
| 2026-02-21 05:32 | 36.43004 | 140.57974 | 30749 ft | 435 kts | 205° |
| 2026-02-21 05:33 | 36.40149 | 140.56892 | 30180 ft | 427 kts | 205° |
| 2026-02-21 05:33 | 36.37256 | 140.55896 | 29592 ft | 433 kts | 197° |
| 2026-02-21 05:33 | 36.34249 | 140.55608 | 29073 ft | 445 kts | 183° |
| 2026-02-21 05:33 | 36.31160 | 140.56192 | 28568 ft | 453 kts | 169° |
| 2026-02-21 05:34 | 36.28171 | 140.57665 | 27982 ft | 457 kts | 154° |
| 2026-02-21 05:34 | 36.25561 | 140.59894 | 27324 ft | 455 kts | 140° |
| 2026-02-21 05:34 | 36.23461 | 140.62729 | 26686 ft | 450 kts | 126° |
| 2026-02-21 05:34 | 36.21647 | 140.65843 | 26075 ft | 443 kts | 128° |
| 2026-02-21 05:35 | 36.19721 | 140.68839 | 25415 ft | 438 kts | 130° |
| 2026-02-21 05:35 | 36.17822 | 140.71750 | 24772 ft | 433 kts | 130° |
| 2026-02-21 05:35 | 36.15905 | 140.74573 | 24027 ft | 431 kts | 131° |
| 2026-02-21 05:35 | 36.13937 | 140.77382 | 23234 ft | 430 kts | 134° |
| 2026-02-21 05:36 | 36.11755 | 140.79803 | 22446 ft | 424 kts | 148° |
| 2026-02-21 05:36 | 36.09199 | 140.81496 | 21691 ft | 416 kts | 163° |
| 2026-02-21 05:36 | 36.06440 | 140.82564 | 20930 ft | 410 kts | 167° |
| 2026-02-21 05:36 | 36.03770 | 140.83633 | 19929 ft | 404 kts | 164° |
| 2026-02-21 05:37 | 36.01150 | 140.84752 | 18799 ft | 389 kts | 165° |
| 2026-02-21 05:37 | 35.98680 | 140.85802 | 17875 ft | 374 kts | 164° |
| 2026-02-21 05:37 | 35.96264 | 140.86858 | 17037 ft | 358 kts | 163° |
| 2026-02-21 05:37 | 35.93950 | 140.87865 | 16294 ft | 356 kts | 163° |
| 2026-02-21 05:38 | 35.91624 | 140.88884 | 15577 ft | 355 kts | 163° |
| 2026-02-21 05:38 | 35.89296 | 140.89906 | 14844 ft | 351 kts | 163° |
| 2026-02-21 05:38 | 35.87027 | 140.90904 | 14118 ft | 346 kts | 163° |
| 2026-02-21 05:38 | 35.84764 | 140.91896 | 13595 ft | 345 kts | 162° |
| 2026-02-21 05:39 | 35.82532 | 140.92877 | 13150 ft | 342 kts | 162° |
| 2026-02-21 05:39 | 35.80276 | 140.93869 | 12615 ft | 339 kts | 162° |
| 2026-02-21 05:39 | 35.78062 | 140.94841 | 12092 ft | 336 kts | 162° |
| 2026-02-21 05:39 | 35.75877 | 140.95801 | 11581 ft | 333 kts | 162° |
| 2026-02-21 05:40 | 35.73719 | 140.96747 | 11087 ft | 330 kts | 162° |
| 2026-02-21 05:40 | 35.71567 | 140.97691 | 10659 ft | 324 kts | 162° |
| 2026-02-21 05:40 | 35.69485 | 140.98604 | 10359 ft | 314 kts | 161° |
| 2026-02-21 05:40 | 35.67467 | 140.99487 | 10100 ft | 304 kts | 161° |
| 2026-02-21 05:41 | 35.65502 | 141.00346 | 9951 ft | 289 kts | 161° |
| 2026-02-21 05:41 | 35.63664 | 141.01150 | 9927 ft | 273 kts | 161° |
| 2026-02-21 05:41 | 35.61845 | 141.01947 | 9995 ft | 281 kts | 161° |
| 2026-02-21 05:41 | 35.59977 | 141.02762 | 10082 ft | 286 kts | 161° |
| 2026-02-21 05:42 | 35.58104 | 141.03581 | 10095 ft | 287 kts | 162° |
| 2026-02-21 05:42 | 35.56195 | 141.04414 | 10102 ft | 287 kts | 162° |
| 2026-02-21 05:42 | 35.54324 | 141.05231 | 10099 ft | 288 kts | 162° |
| 2026-02-21 05:42 | 35.52370 | 141.05858 | 10030 ft | 289 kts | 171° |
| 2026-02-21 05:43 | 35.50402 | 141.06320 | 9796 ft | 291 kts | 169° |
| 2026-02-21 05:43 | 35.48437 | 141.06828 | 9513 ft | 286 kts | 169° |
| 2026-02-21 05:43 | 35.46493 | 141.07315 | 9220 ft | 283 kts | 169° |
| 2026-02-21 05:43 | 35.44571 | 141.07805 | 8940 ft | 281 kts | 169° |
| 2026-02-21 05:44 | 35.42659 | 141.08289 | 8662 ft | 279 kts | 169° |
| 2026-02-21 05:44 | 35.40725 | 141.08614 | 8348 ft | 277 kts | 183° |
| 2026-02-21 05:44 | 35.38837 | 141.08246 | 8075 ft | 276 kts | 196° |
| 2026-02-21 05:44 | 35.37106 | 141.07297 | 7756 ft | 274 kts | 217° |
| 2026-02-21 05:45 | 35.35787 | 141.05667 | 7466 ft | 264 kts | 240° |
| 2026-02-21 05:45 | 35.35095 | 141.03648 | 7170 ft | 255 kts | 262° |
| 2026-02-21 05:45 | 35.35091 | 141.01524 | 6872 ft | 250 kts | 285° |
| 2026-02-21 05:45 | 35.35751 | 140.99559 | 6585 ft | 249 kts | 302° |
| 2026-02-21 05:46 | 35.36611 | 140.97757 | 6353 ft | 246 kts | 301° |
| 2026-02-21 05:46 | 35.37449 | 140.95906 | 6063 ft | 246 kts | 301° |
| 2026-02-21 05:46 | 35.38280 | 140.94098 | 5807 ft | 245 kts | 301° |
| 2026-02-21 05:46 | 35.39120 | 140.92262 | 5575 ft | 243 kts | 301° |
| 2026-02-21 05:47 | 35.39931 | 140.90488 | 5444 ft | 233 kts | 301° |
| 2026-02-21 05:47 | 35.40725 | 140.88753 | 5223 ft | 236 kts | 301° |
| 2026-02-21 05:47 | 35.41530 | 140.86992 | 5018 ft | 239 kts | 301° |
| 2026-02-21 05:47 | 35.42351 | 140.85196 | 4817 ft | 236 kts | 301° |
| 2026-02-21 05:48 | 35.43158 | 140.83429 | 4569 ft | 234 kts | 301° |
| 2026-02-21 05:48 | 35.43961 | 140.81671 | 4339 ft | 233 kts | 301° |
| 2026-02-21 05:48 | 35.44738 | 140.79970 | 4161 ft | 227 kts | 301° |
| 2026-02-21 05:48 | 35.45491 | 140.78314 | 4026 ft | 216 kts | 301° |
| 2026-02-21 05:49 | 35.46209 | 140.76738 | 3941 ft | 208 kts | 301° |
| 2026-02-21 05:49 | 35.46921 | 140.75177 | 3956 ft | 211 kts | 301° |
| 2026-02-21 05:49 | 35.47640 | 140.73601 | 3995 ft | 212 kts | 301° |
| 2026-02-21 05:49 | 35.48368 | 140.72003 | 4011 ft | 212 kts | 301° |
| 2026-02-21 05:50 | 35.49079 | 140.70438 | 4022 ft | 213 kts | 301° |
| 2026-02-21 05:50 | 35.49805 | 140.68845 | 4031 ft | 213 kts | 302° |
| 2026-02-21 05:50 | 35.50534 | 140.67241 | 4031 ft | 214 kts | 302° |
| 2026-02-21 05:50 | 35.51264 | 140.65640 | 4017 ft | 215 kts | 301° |
| 2026-02-21 05:51 | 35.51994 | 140.64037 | 3986 ft | 217 kts | 301° |
| 2026-02-21 05:51 | 35.52725 | 140.62430 | 4038 ft | 207 kts | 301° |
| 2026-02-21 05:51 | 35.53410 | 140.60918 | 4014 ft | 198 kts | 301° |
| 2026-02-21 05:51 | 35.54069 | 140.59465 | 3979 ft | 195 kts | 301° |
| 2026-02-21 05:52 | 35.54722 | 140.58025 | 4065 ft | 187 kts | 301° |
| 2026-02-21 05:52 | 35.55982 | 140.55228 | 4091 ft | 185 kts | 299° |
| 2026-02-21 05:52 | 35.56590 | 140.53839 | 3981 ft | 182 kts | 304° |
| 2026-02-21 05:53 | 35.57279 | 140.52562 | 3920 ft | 178 kts | 308° |
| 2026-02-21 05:53 | 35.58070 | 140.51421 | 3902 ft | 173 kts | 319° |
| 2026-02-21 05:53 | 35.58979 | 140.50461 | 3913 ft | 171 kts | 324° |
| 2026-02-21 05:53 | 35.59929 | 140.49606 | 3938 ft | 167 kts | 328° |
| 2026-02-21 05:54 | 35.60914 | 140.48796 | 3874 ft | 171 kts | 329° |
| 2026-02-21 05:54 | 35.61916 | 140.48013 | 3655 ft | 169 kts | 331° |
| 2026-02-21 05:54 | 35.62925 | 140.47252 | 3429 ft | 169 kts | 332° |
| 2026-02-21 05:54 | 35.63940 | 140.46516 | 3175 ft | 168 kts | 333° |
| 2026-02-21 05:55 | 35.64955 | 140.45787 | 2926 ft | 168 kts | 333° |
| 2026-02-21 05:55 | 35.65964 | 140.45067 | 2685 ft | 168 kts | 333° |
| 2026-02-21 05:55 | 35.66976 | 140.44339 | 2435 ft | 166 kts | 332° |
| 2026-02-21 05:55 | 35.67965 | 140.43633 | 2129 ft | 165 kts | 333° |
| 2026-02-21 05:56 | 35.68957 | 140.42915 | 1792 ft | 162 kts | 332° |
| 2026-02-21 05:56 | 35.69931 | 140.42215 | 1439 ft | 161 kts | 333° |
| 2026-02-21 05:56 | 35.70900 | 140.41522 | 1026 ft | 163 kts | 333° |
| 2026-02-21 05:56 | 35.71867 | 140.40822 | 676 ft | 159 kts | 333° |
| 2026-02-21 05:57 | 35.72821 | 140.40149 | 476 ft | 154 kts | 333° |
| 2026-02-21 05:57 | 35.73758 | 140.39475 | 298 ft | 158 kts | 333° |
| 2026-02-21 05:57 | 35.74706 | 140.38808 | 138 ft | 154 kts | 332° |
| 2026-02-21 05:57 | 35.75507 | 140.38228 | 143 ft | 111 kts | 330° |
| 2026-02-21 05:58 | 35.76063 | 140.37825 | 140 ft | 74 kts | 332° |
| 2026-02-21 05:58 | 35.76413 | 140.37590 | 132 ft | 41 kts | 339° |
| 2026-02-21 05:58 | 35.76626 | 140.37518 | 130 ft | 19 kts | 348° |
| 2026-02-21 05:58 | 35.76718 | 140.37492 | 130 ft | 9 kts | 347° |
| 2026-02-21 05:59 | 35.76767 | 140.37480 | 130 ft | 4 kts | 358° |
| 2026-02-21 05:59 | 35.76791 | 140.37482 | 130 ft | 2 kts | 12° |
| 2026-02-21 05:59 | 35.76825 | 140.37506 | 130 ft | 8 kts | 52° |
| 2026-02-21 05:59 | 35.76861 | 140.37589 | 132 ft | 9 kts | 78° |
| 2026-02-21 06:00 | 35.76833 | 140.37653 | 133 ft | 8 kts | 148° |
| 2026-02-21 06:00 | 35.76778 | 140.37692 | 133 ft | 9 kts | 149° |
| 2026-02-21 06:00 | 35.76718 | 140.37736 | 133 ft | 10 kts | 149° |
| 2026-02-21 06:00 | 35.76654 | 140.37784 | 134 ft | 10 kts | 150° |
| 2026-02-21 06:01 | 35.76615 | 140.37843 | 134 ft | 8 kts | 95° |
| 2026-02-21 06:01 | 35.76646 | 140.37938 | 137 ft | 14 kts | 62° |
| 2026-02-21 06:01 | 35.76688 | 140.38029 | 140 ft | 10 kts | 60° |
| 2026-02-21 06:01 | 35.76730 | 140.38115 | 142 ft | 12 kts | 60° |
| 2026-02-21 06:02 | 35.76771 | 140.38187 | 144 ft | 6 kts | 15° |
| 2026-02-21 06:02 | 35.76814 | 140.38171 | 143 ft | 6 kts | 332° |
| 2026-02-21 06:02 | 35.76844 | 140.38152 | 143 ft | 3 kts | 333° |
| 2026-02-21 06:02 | 35.76860 | 140.38141 | 143 ft | 4 kts | 333° |
| 2026-02-21 06:03 | 35.76864 | 140.38138 | 143 ft | 0 kts | 333° |